Time;durP1;ratioP1;P1;durP2;ratioP2;P2;SDS_P1;SDS_P2;PMS_P1;PMS_P2;Temp;Humidity;BMP_temperature;BMP_pressure;BME280_temperature;BME280_humidity;BME280_pressure;Samples;Min_cycle;Max_cycle;Signal;HPM_P1;HPM_P2
2022/08/06 00:02:15;;;;;;;2.00;0.70;;;14.20;99.90;;;;;;6226952;22;20023;-90
2022/08/06 00:04:41;;;;;;;2.00;0.88;;;14.20;99.90;;;;;;6226509;22;20243;-89
2022/08/06 00:07:07;;;;;;;1.63;0.40;;;14.20;99.90;;;;;;6226453;22;20137;-90
2022/08/06 00:09:33;;;;;;;1.20;0.50;;;14.20;99.90;;;;;;6226077;22;20253;-91
2022/08/06 00:12:00;;;;;;;0.77;0.50;;;14.20;99.90;;;;;;6221213;23;20104;-91
2022/08/06 00:14:31;;;;;;;1.20;0.60;;;14.10;99.90;;;;;;6220965;23;20020;-89
2022/08/06 00:16:57;;;;;;;1.73;0.60;;;14.10;99.90;;;;;;6221060;23;20315;-92
2022/08/06 00:19:23;;;;;;;;;;;14.10;99.90;;;;;;6221538;23;20515;-91
2022/08/06 00:21:49;;;;;;;1.10;0.50;;;14.10;99.90;;;;;;6221249;23;19919;-89
2022/08/06 00:24:15;;;;;;;1.50;0.63;;;14.10;99.90;;;;;;6221202;23;20438;-90
2022/08/06 00:26:41;;;;;;;1.30;0.77;;;14.00;99.90;;;;;;6221680;23;20019;-91
2022/08/06 00:29:07;;;;;;;1.92;0.50;;;14.00;99.90;;;;;;6220789;23;20013;-91
2022/08/06 00:31:33;;;;;;;0.75;0.50;;;14.00;99.90;;;;;;6220817;23;20069;-92
2022/08/06 00:34:03;;;;;;;1.15;0.43;;;13.90;99.90;;;;;;6220720;23;20016;-92
2022/08/06 00:36:31;;;;;;;2.25;0.57;;;13.90;99.90;;;;;;6220860;23;20016;-91
2022/08/06 00:39:02;;;;;;;1.50;0.73;;;13.80;99.90;;;;;;6220713;23;20012;-88
2022/08/06 00:41:43;;;;;;;1.35;0.70;;;13.90;99.90;;;;;;6221119;23;20441;-88
2022/08/06 00:44:09;;;;;;;1.33;0.60;;;13.80;99.90;;;;;;6220742;23;20039;-90
2022/08/06 00:46:34;;;;;;;0.88;0.60;;;13.80;99.90;;;;;;6220353;23;20473;-88
2022/08/06 00:49:00;;;;;;;1.00;0.50;;;13.80;99.90;;;;;;6220494;23;20012;-89
2022/08/06 00:51:26;;;;;;;1.25;0.47;;;13.80;99.90;;;;;;6220744;23;20400;-88
2022/08/06 00:53:52;;;;;;;1.87;0.60;;;13.70;99.90;;;;;;6220644;23;20048;-88
2022/08/06 00:57:01;;;;;;;1.27;0.52;;;13.70;99.90;;;;;;6220591;23;20016;-90
2022/08/06 00:59:47;;;;;;;1.13;0.50;;;13.70;99.90;;;;;;6220729;23;20453;-90
2022/08/06 01:02:13;;;;;;;1.30;0.50;;;13.60;99.90;;;;;;6220390;23;20463;-89
2022/08/06 01:04:46;;;;;;;1.75;0.52;;;13.60;99.90;;;;;;6220729;23;20020;-87
2022/08/06 01:07:25;;;;;;;1.25;0.65;;;13.60;99.90;;;;;;6220685;23;20437;-88
2022/08/06 01:09:51;;;;;;;1.58;0.60;;;13.60;99.90;;;;;;6222634;22;20020;-89
2022/08/06 01:12:17;;;;;;;1.50;0.60;;;13.50;99.90;;;;;;6225769;22;20016;-90
2022/08/06 01:14:55;;;;;;;1.13;0.60;;;13.50;99.90;;;;;;6225351;22;20022;-88
2022/08/06 01:17:28;;;;;;;0.95;0.52;;;13.50;99.90;;;;;;6225584;22;20020;-88
2022/08/06 01:20:31;;;;;;;1.77;0.60;;;13.50;99.90;;;;;;6225716;22;20016;-90
2022/08/06 01:22:57;;;;;;;0.90;0.45;;;13.40;99.90;;;;;;6225557;22;20113;-88
2022/08/06 01:25:41;;;;;;;5.18;0.65;;;13.40;99.90;;;;;;6225583;22;20020;-90
2022/08/06 01:28:10;;;;;;;1.05;0.47;;;13.30;99.90;;;;;;6225398;22;20095;-89
2022/08/06 01:30:47;;;;;;;2.20;0.60;;;13.30;99.90;;;;;;6225767;22;20016;-87
2022/08/06 01:33:22;;;;;;;1.35;0.50;;;13.20;99.90;;;;;;6250755;22;20483;-88
2022/08/06 01:35:54;;;;;;;0.63;0.40;;;13.20;99.90;;;;;;6225488;22;20015;-88
2022/08/06 01:38:48;;;;;;;2.17;0.60;;;13.10;99.90;;;;;;6250550;22;20082;-90
2022/08/06 01:41:40;;;;;;;1.27;0.50;;;13.10;99.90;;;;;;6220551;22;20016;-88
2022/08/06 01:44:29;;;;;;;1.48;0.50;;;13.00;99.90;;;;;;6250194;22;20018;-90
2022/08/06 01:46:59;;;;;;;0.80;0.38;;;13.00;99.90;;;;;;6225541;22;20523;-87
2022/08/06 01:49:28;;;;;;;1.00;0.47;;;12.90;99.90;;;;;;6225318;22;20019;-89
2022/08/06 01:52:11;;;;;;;1.10;0.50;;;12.90;99.90;;;;;;6225126;22;20444;-89
2022/08/06 01:54:45;;;;;;;1.23;0.70;;;12.90;99.90;;;;;;6250062;22;20051;-87
2022/08/06 01:57:13;;;;;;;1.40;0.68;;;12.90;99.90;;;;;;6225413;22;20019;-88
2022/08/06 01:59:46;;;;;;;1.67;0.60;;;13.00;99.90;;;;;;6225292;22;20023;-90
2022/08/06 02:02:18;;;;;;;1.05;0.40;;;12.90;99.90;;;;;;6224991;22;20049;-88
2022/08/06 02:04:45;;;;;;;1.00;0.50;;;12.90;99.90;;;;;;6224927;22;20046;-87
2022/08/06 02:07:45;;;;;;;1.88;0.95;;;12.90;99.90;;;;;;6225758;22;20023;-87
2022/08/06 02:10:13;;;;;;;1.05;0.50;;;12.90;99.90;;;;;;6224443;22;20570;-87
2022/08/06 02:12:41;;;;;;;0.70;0.40;;;12.90;99.90;;;;;;6224749;22;20059;-90
2022/08/06 02:15:18;;;;;;;1.88;0.43;;;12.90;99.90;;;;;;6224608;22;20389;-89
2022/08/06 02:17:50;;;;;;;0.60;0.47;;;12.90;99.90;;;;;;6225087;22;20015;-91
2022/08/06 02:20:38;;;;;;;0.73;0.40;;;12.90;99.90;;;;;;6224958;22;20023;-89
2022/08/06 02:23:09;;;;;;;0.65;0.25;;;12.90;99.90;;;;;;6225064;22;20337;-90
2022/08/06 02:25:57;;;;;;;1.58;0.38;;;12.90;99.90;;;;;;6225219;22;20380;-89
2022/08/06 02:28:26;;;;;;;0.38;0.22;;;12.90;99.90;;;;;;6224696;22;20015;-88
2022/08/06 02:30:55;;;;;;;0.40;0.30;;;12.90;99.90;;;;;;6224325;22;20020;-88
2022/08/06 02:33:21;;;;;;;0.80;0.30;;;12.90;99.90;;;;;;6224832;22;20039;-89
2022/08/06 02:36:19;;;;;;;0.55;0.30;;;12.90;99.90;;;;;;6224615;22;20019;-90
2022/08/06 02:38:48;;;;;;;0.70;0.22;;;12.90;99.90;;;;;;6224592;22;20389;-89
2022/08/06 02:41:51;;;;;;;1.08;0.30;;;12.90;99.90;;;;;;6250828;22;20016;-89
2022/08/06 02:44:28;;;;;;;0.45;0.20;;;12.90;99.90;;;;;;6225299;22;20016;-90
2022/08/06 02:47:08;;;;;;;0.47;0.28;;;12.90;99.90;;;;;;6224885;22;20016;-90
2022/08/06 02:49:37;;;;;;;0.77;0.30;;;13.00;99.90;;;;;;6250072;22;20047;-88
2022/08/06 02:52:15;;;;;;;1.83;0.25;;;13.00;99.90;;;;;;6224676;22;20472;-89
2022/08/06 02:54:48;;;;;;;0.43;0.20;;;13.00;99.90;;;;;;6224725;22;20020;-91
2022/08/06 02:57:21;;;;;;;0.65;0.30;;;13.00;99.90;;;;;;6224851;22;20038;-88
2022/08/06 02:59:52;;;;;;;0.98;0.30;;;13.10;99.90;;;;;;6224667;22;20012;-90
2022/08/06 03:02:21;;;;;;;0.43;0.25;;;13.10;99.90;;;;;;6225040;22;20445;-89
2022/08/06 03:04:48;;;;;;;0.65;0.28;;;13.10;99.90;;;;;;6224719;22;20011;-91
2022/08/06 03:07:16;;;;;;;1.30;0.32;;;13.10;99.90;;;;;;6224857;22;20157;-88
2022/08/06 03:09:46;;;;;;;0.30;0.20;;;13.20;99.90;;;;;;6225069;22;20034;-91
2022/08/06 03:12:15;;;;;;;0.63;0.35;;;13.20;99.90;;;;;;6224304;22;20019;-89
2022/08/06 03:14:42;;;;;;;0.22;0.20;;;13.20;99.90;;;;;;6224391;22;20077;-89
2022/08/06 03:17:12;;;;;;;1.10;0.60;;;13.10;99.90;;;;;;6224534;22;20444;-92
2022/08/06 03:19:39;;;;;;;0.98;0.30;;;13.20;99.90;;;;;;6224657;22;20015;-91
2022/08/06 03:22:06;;;;;;;0.88;0.32;;;13.20;99.90;;;;;;6249757;22;20019;-91
2022/08/06 03:24:35;;;;;;;1.48;0.30;;;13.20;99.90;;;;;;6224832;22;20016;-92
2022/08/06 03:27:02;;;;;;;1.08;0.50;;;13.30;99.90;;;;;;6224708;22;20016;-91
2022/08/06 03:29:30;;;;;;;0.77;0.35;;;13.30;99.90;;;;;;6224505;22;20020;-88
2022/08/06 03:31:56;;;;;;;0.60;0.20;;;13.30;99.90;;;;;;6250055;22;20011;-89
2022/08/06 03:34:22;;;;;;;0.82;0.30;;;13.30;99.90;;;;;;6224983;22;20686;-90
2022/08/06 03:36:49;;;;;;;0.63;0.30;;;13.30;99.90;;;;;;6224918;22;20094;-89
2022/08/06 03:39:16;;;;;;;0.40;0.30;;;13.30;99.90;;;;;;6250609;22;20012;-91
2022/08/06 03:41:43;;;;;;;1.48;0.40;;;13.30;99.90;;;;;;6226706;22;20095;-91
2022/08/06 03:44:09;;;;;;;0.80;0.30;;;13.30;99.90;;;;;;6226534;22;20058;-90
2022/08/06 03:46:46;;;;;;;0.90;0.38;;;13.20;99.90;;;;;;6226652;22;20016;-91
2022/08/06 03:49:23;;;;;;;1.58;0.55;;;13.20;99.90;;;;;;6226516;22;20025;-91
2022/08/06 03:51:53;;;;;;;0.30;0.30;;;13.20;99.90;;;;;;6226191;22;20095;-90
2022/08/06 03:54:25;;;;;;;1.60;0.32;;;13.20;99.90;;;;;;6226194;22;20094;-90
2022/08/06 03:56:52;;;;;;;1.45;0.32;;;13.10;99.90;;;;;;6226483;22;20345;-89
2022/08/06 03:59:20;;;;;;;1.17;0.50;;;13.10;99.90;;;;;;6226358;22;20011;-88
2022/08/06 04:01:48;;;;;;;0.98;0.50;;;13.10;99.90;;;;;;6226197;22;20027;-88
2022/08/06 04:04:14;;;;;;;1.20;0.50;;;13.10;99.90;;;;;;6226225;22;20044;-89
2022/08/06 04:06:41;;;;;;;;;;;13.10;99.90;;;;;;6226783;22;20011;-89
2022/08/06 04:09:08;;;;;;;1.42;0.60;;;13.10;99.90;;;;;;6226221;22;19915;-89
2022/08/06 04:11:34;;;;;;;;;;;13.10;99.90;;;;;;6251680;22;20022;-90
2022/08/06 04:14:01;;;;;;;1.60;0.75;;;13.10;99.90;;;;;;6226179;22;20329;-92
2022/08/06 04:16:27;;;;;;;3.28;0.47;;;13.10;99.90;;;;;;6226209;22;20103;-89
2022/08/06 04:18:55;;;;;;;0.88;0.50;;;13.10;99.90;;;;;;6225997;22;20145;-91
2022/08/06 04:21:23;;;;;;;0.70;0.47;;;13.10;99.90;;;;;;6226089;22;20022;-90
2022/08/06 04:23:51;;;;;;;1.02;0.50;;;13.10;99.90;;;;;;6226270;22;20011;-89
2022/08/06 04:26:22;;;;;;;0.50;0.40;;;13.20;99.90;;;;;;6225935;22;20016;-91
2022/08/06 04:28:51;;;;;;;0.50;0.40;;;13.20;99.90;;;;;;6226203;22;20023;-90
2022/08/06 04:31:19;;;;;;;0.82;0.47;;;13.20;99.90;;;;;;6251127;22;20031;-89
2022/08/06 04:33:45;;;;;;;0.70;0.40;;;13.30;99.90;;;;;;6225796;22;20011;-89
2022/08/06 04:36:12;;;;;;;1.58;0.50;;;13.30;99.90;;;;;;6225726;22;20385;-89
2022/08/06 04:38:38;;;;;;;1.58;0.60;;;13.30;99.90;;;;;;6225603;22;20039;-89
2022/08/06 04:41:04;;;;;;;1.23;0.60;;;13.40;99.90;;;;;;6251051;22;20022;-91
2022/08/06 04:43:30;;;;;;;;;;;13.40;99.90;;;;;;6226437;22;20499;-89
2022/08/06 04:45:57;;;;;;;1.90;0.50;;;13.40;99.90;;;;;;6225853;22;19919;-90
2022/08/06 04:48:24;;;;;;;1.45;0.47;;;13.40;99.90;;;;;;6225455;22;20094;-89
2022/08/06 04:50:50;;;;;;;0.50;0.30;;;13.50;99.90;;;;;;6225846;22;20016;-89
2022/08/06 04:53:17;;;;;;;1.58;0.57;;;13.60;99.90;;;;;;6226066;22;20016;-88
2022/08/06 04:55:44;;;;;;;0.90;0.40;;;13.60;99.90;;;;;;6225896;22;20015;-90
2022/08/06 04:58:13;;;;;;;1.45;0.60;;;13.70;99.90;;;;;;6225682;22;20437;-90
2022/08/06 05:00:42;;;;;;;0.98;0.50;;;13.80;99.90;;;;;;6225459;22;20016;-89
2022/08/06 05:03:08;;;;;;;0.65;0.40;;;13.80;99.90;;;;;;6225639;22;20077;-90
2022/08/06 05:05:46;;;;;;;2.10;0.60;;;13.80;99.90;;;;;;6225602;22;20445;-89
2022/08/06 05:08:12;;;;;;;1.95;0.55;;;13.90;99.90;;;;;;6225580;22;20008;-89
2022/08/06 05:10:51;;;;;;;0.95;0.45;;;13.90;99.90;;;;;;6225265;22;20026;-90
2022/08/06 05:13:20;;;;;;;0.90;0.40;;;14.00;99.90;;;;;;6225652;22;20019;-89
2022/08/06 05:15:53;;;;;;;1.15;0.40;;;14.00;99.90;;;;;;6225556;22;20027;-90
2022/08/06 05:18:33;;;;;;;1.00;0.40;;;14.00;99.90;;;;;;6225787;22;20023;-89
2022/08/06 05:21:00;;;;;;;1.88;0.50;;;14.00;99.90;;;;;;6225492;22;20387;-89
2022/08/06 05:23:49;;;;;;;1.05;0.40;;;14.00;99.90;;;;;;6225282;22;20025;-88
2022/08/06 05:26:15;;;;;;;0.70;0.40;;;14.10;99.90;;;;;;6225368;22;20019;-89
2022/08/06 05:28:42;;;;;;;1.23;0.50;;;14.10;99.90;;;;;;6225193;22;20066;-90
2022/08/06 05:31:07;;;;;;;;;;;14.10;99.90;;;;;;6225940;22;20050;-89
2022/08/06 05:33:36;;;;;;;0.88;0.40;;;14.10;99.90;;;;;;6225283;22;19915;-89
2022/08/06 05:36:04;;;;;;;1.25;0.40;;;14.20;99.90;;;;;;6224988;22;20016;-89
2022/08/06 05:38:31;;;;;;;1.02;0.40;;;14.20;99.90;;;;;;6225046;22;20069;-89
2022/08/06 05:40:57;;;;;;;1.55;0.40;;;14.30;99.90;;;;;;6225326;22;20023;-88
2022/08/06 05:43:23;;;;;;;0.97;0.30;;;14.40;99.90;;;;;;6225628;22;20016;-89
2022/08/06 05:45:52;;;;;;;0.93;0.50;;;14.60;99.90;;;;;;6225549;22;20047;-89
2022/08/06 05:48:20;;;;;;;1.77;0.40;;;14.80;99.90;;;;;;6225266;22;20027;-89
2022/08/06 05:50:59;;;;;;;0.65;0.50;;;14.80;99.90;;;;;;6225189;22;20015;-89
2022/08/06 05:53:37;;;;;;;0.70;0.40;;;14.90;99.90;;;;;;6225236;22;20011;-89
2022/08/06 05:56:26;;;;;;;1.08;0.40;;;15.10;99.90;;;;;;6225134;22;20353;-89
2022/08/06 05:58:59;;;;;;;0.40;0.30;;;15.20;99.90;;;;;;6225227;22;20020;-90
2022/08/06 06:01:26;;;;;;;0.90;0.45;;;15.20;99.90;;;;;;6224838;22;20011;-89
2022/08/06 06:03:54;;;;;;;1.30;0.38;;;15.10;99.90;;;;;;6224723;22;20099;-88
2022/08/06 06:06:21;;;;;;;0.50;0.35;;;15.10;99.90;;;;;;6224612;22;20012;-88
2022/08/06 06:08:48;;;;;;;1.02;0.40;;;15.00;99.90;;;;;;6224459;22;20431;-88
2022/08/06 06:11:14;;;;;;;0.30;0.20;;;15.00;99.90;;;;;;6249575;22;20007;-87
2022/08/06 06:13:41;;;;;;;;;;;14.90;99.90;;;;;;6224996;22;20077;-88
2022/08/06 06:16:21;;;;;;;0.70;0.40;;;14.90;99.90;;;;;;6224804;22;19915;-89
2022/08/06 06:19:09;;;;;;;0.35;0.30;;;14.80;99.90;;;;;;6225216;22;20016;-92
2022/08/06 06:21:59;;;;;;;0.85;0.38;;;14.80;99.90;;;;;;6225009;22;20065;-88
2022/08/06 06:24:52;;;;;;;0.65;0.30;;;14.80;99.90;;;;;;6224613;22;20456;-88
2022/08/06 06:27:43;;;;;;;0.90;0.30;;;14.80;99.90;;;;;;6225039;22;20464;-88
2022/08/06 06:30:20;;;;;;;0.90;0.25;;;14.70;99.90;;;;;;6207839;22;20020;-88
2022/08/06 06:32:56;;;;;;;1.15;0.50;;;14.80;99.90;;;;;;6224698;22;20055;-88
2022/08/06 06:35:21;;;;;;;1.60;0.40;;;15.30;99.90;;;;;;6224640;22;20012;-88
2022/08/06 06:38:11;;;;;;;0.90;0.30;;;16.60;99.90;;;;;;6224601;22;20061;-90
2022/08/06 06:40:48;;;;;;;1.15;0.30;;;18.10;99.90;;;;;;6224360;22;20012;-90
2022/08/06 06:43:19;;;;;;;2.45;0.43;;;19.40;99.90;;;;;;6224644;22;20437;-90
2022/08/06 06:46:06;;;;;;;0.65;0.25;;;20.40;99.90;;;;;;6250008;22;20433;-89
2022/08/06 06:48:42;;;;;;;2.03;0.30;;;21.30;99.90;;;;;;6222985;22;20457;-90
2022/08/06 06:51:14;;;;;;;0.30;0.20;;;21.90;99.90;;;;;;6223207;22;20015;-90
2022/08/06 06:53:44;;;;;;;1.58;0.20;;;22.20;99.90;;;;;;6224258;22;20027;-89
2022/08/06 06:56:13;;;;;;;0.50;0.20;;;22.00;99.20;;;;;;6224519;22;20016;-89
2022/08/06 06:58:42;;;;;;;1.02;0.20;;;21.50;99.50;;;;;;6223980;22;20094;-88
2022/08/06 07:01:11;;;;;;;0.75;0.30;;;20.90;99.60;;;;;;6249468;22;20344;-89
2022/08/06 07:03:39;;;;;;;0.95;0.30;;;20.50;99.90;;;;;;6224231;22;20015;-89
2022/08/06 07:06:08;;;;;;;0.40;0.20;;;20.10;99.90;;;;;;6224196;22;20020;-88
2022/08/06 07:08:45;;;;;;;1.40;0.30;;;19.90;99.90;;;;;;6224056;22;20502;-88
2022/08/06 07:11:30;;;;;;;0.50;0.25;;;20.00;99.90;;;;;;6249018;22;20020;-88
2022/08/06 07:13:58;;;;;;;0.47;0.28;;;20.30;99.90;;;;;;6250048;22;20095;-89
2022/08/06 07:16:26;;;;;;;0.68;0.20;;;20.00;99.90;;;;;;6226246;22;20456;-87
2022/08/06 07:18:53;;;;;;;0.68;0.20;;;19.60;99.90;;;;;;6225966;22;20058;-88
2022/08/06 07:21:20;;;;;;;0.17;0.10;;;19.30;99.90;;;;;;6225903;22;20411;-88
2022/08/06 07:23:51;;;;;;;0.50;0.20;;;19.20;99.90;;;;;;6226008;22;20047;-87
2022/08/06 07:26:23;;;;;;;0.68;0.30;;;19.20;99.90;;;;;;6225682;22;20059;-87
2022/08/06 07:28:50;;;;;;;0.25;0.20;;;19.20;99.90;;;;;;6250970;22;20086;-89
2022/08/06 07:31:17;;;;;;;0.55;0.25;;;19.10;99.90;;;;;;6225784;22;20020;-88
2022/08/06 07:33:45;;;;;;;0.93;0.52;;;19.00;99.90;;;;;;6251078;22;20109;-87
2022/08/06 07:36:17;;;;;;;0.80;0.40;;;18.80;99.90;;;;;;6225576;22;20441;-89
2022/08/06 07:38:45;;;;;;;0.80;0.28;;;18.70;99.90;;;;;;6278450;22;20016;-88
2022/08/06 07:41:13;;;;;;;0.88;0.20;;;18.60;99.90;;;;;;6225702;22;20016;-89
2022/08/06 07:43:57;;;;;;;0.47;0.20;;;18.50;99.90;;;;;;6250758;22;20098;-91
2022/08/06 07:46:28;;;;;;;1.30;0.20;;;18.40;99.90;;;;;;6225903;22;20011;-89
2022/08/06 07:48:57;;;;;;;0.70;0.40;;;18.30;99.90;;;;;;6225734;22;20449;-87
2022/08/06 07:51:27;;;;;;;2.72;0.57;;;18.30;99.90;;;;;;6225735;22;20016;-89
2022/08/06 07:53:57;;;;;;;0.50;0.30;;;18.20;99.90;;;;;;6250978;22;20042;-90
2022/08/06 07:56:25;;;;;;;1.63;0.40;;;18.10;99.90;;;;;;6225444;22;20020;-86
2022/08/06 07:59:00;;;;;;;0.30;0.28;;;18.10;99.90;;;;;;6251171;22;20095;-87
2022/08/06 08:01:27;;;;;;;1.55;0.30;;;18.10;99.90;;;;;;6225686;22;20023;-88
2022/08/06 08:06:39;;;;;;;1.10;0.20;;;18.10;99.90;;;;;;6248741;22;20103;-90
2022/08/06 08:09:14;;;;;;;1.88;0.20;;;18.10;99.90;;;;;;6225392;22;20015;-89
2022/08/06 08:11:44;;;;;;;0.40;0.20;;;18.10;99.90;;;;;;6224630;22;20068;-88
2022/08/06 08:14:12;;;;;;;0.82;0.20;;;18.10;99.90;;;;;;6223889;22;20023;-88
2022/08/06 08:16:43;;;;;;;2.92;0.30;;;18.10;99.90;;;;;;6225553;22;20019;-91
2022/08/06 08:19:31;;;;;;;0.80;0.30;;;18.10;99.90;;;;;;6226462;22;20091;-90
2022/08/06 08:22:05;;;;;;;0.73;0.30;;;18.20;99.90;;;;;;6228322;22;20448;-87
2022/08/06 08:24:32;;;;;;;1.02;0.20;;;18.20;99.90;;;;;;6224556;22;20020;-90
2022/08/06 08:26:59;;;;;;;0.63;0.30;;;18.30;99.90;;;;;;6225045;22;20436;-92
2022/08/06 08:29:26;;;;;;;0.52;0.30;;;18.40;99.90;;;;;;6225126;22;20011;-86
2022/08/06 08:31:51;;;;;;;;;;;18.30;99.90;;;;;;6225324;22;20065;-86
2022/08/06 08:34:20;;;;;;;0.70;0.30;;;18.30;99.90;;;;;;6224936;22;19918;-88
2022/08/06 08:36:46;;;;;;;0.80;0.20;;;18.20;99.90;;;;;;6277415;22;20541;-86
2022/08/06 08:39:12;;;;;;;0.63;0.30;;;18.20;99.90;;;;;;6224652;22;20050;-88
2022/08/06 08:41:46;;;;;;;0.60;0.20;;;18.10;99.90;;;;;;6225210;22;20449;-89
2022/08/06 08:44:12;;;;;;;0.75;0.30;;;18.00;99.90;;;;;;6225115;22;20072;-88
2022/08/06 08:46:40;;;;;;;0.52;0.20;;;18.00;99.90;;;;;;6225077;22;20016;-89
2022/08/06 08:49:08;;;;;;;0.50;0.20;;;18.00;99.90;;;;;;6225066;22;20020;-89
2022/08/06 08:51:39;;;;;;;1.75;0.40;;;17.90;99.90;;;;;;6249810;22;20069;-87
2022/08/06 08:54:11;;;;;;;1.60;0.40;;;17.90;99.90;;;;;;6222593;22;20012;-87
2022/08/06 08:56:37;;;;;;;1.20;0.40;;;17.80;99.90;;;;;;6224180;22;20020;-89
2022/08/06 08:59:06;;;;;;;;;;;17.80;99.90;;;;;;6224408;22;20511;-91
2022/08/06 09:01:34;;;;;;;1.08;0.40;;;17.70;99.90;;;;;;6225172;22;19926;-87
2022/08/06 09:04:03;;;;;;;1.17;0.40;;;17.60;99.90;;;;;;6225081;22;20016;-87
2022/08/06 09:06:31;;;;;;;1.52;0.40;;;17.60;99.90;;;;;;6225446;22;20349;-88
2022/08/06 09:09:02;;;;;;;1.38;0.50;;;17.70;99.90;;;;;;6225531;22;20018;-87
2022/08/06 09:11:29;;;;;;;1.25;0.30;;;17.70;99.90;;;;;;6224804;22;20349;-88
2022/08/06 09:13:54;;;;;;;;;;;17.80;99.90;;;;;;6225589;22;20051;-88
2022/08/06 09:16:21;;;;;;;0.90;0.30;;;17.90;99.90;;;;;;6224811;22;19922;-87
2022/08/06 09:18:47;;;;;;;0.90;0.40;;;17.90;99.90;;;;;;6250080;22;20020;-88
2022/08/06 09:21:12;;;;;;;1.10;0.47;;;17.90;99.90;;;;;;6225103;22;20062;-87
2022/08/06 09:23:39;;;;;;;1.85;0.65;;;17.90;99.90;;;;;;6225301;22;20117;-88
2022/08/06 09:26:06;;;;;;;2.53;0.50;;;17.80;99.90;;;;;;6225136;22;20105;-88
2022/08/06 09:28:37;;;;;;;1.00;0.52;;;17.80;99.90;;;;;;6223739;22;20023;-88
2022/08/06 09:31:03;;;;;;;1.08;0.40;;;17.80;99.90;;;;;;6250031;22;20055;-87
2022/08/06 09:33:30;;;;;;;1.50;0.52;;;17.90;99.90;;;;;;6225026;22;20016;-88
2022/08/06 09:35:58;;;;;;;0.88;0.50;;;18.00;99.90;;;;;;6224167;22;20019;-87
2022/08/06 09:38:24;;;;;;;1.02;0.40;;;18.00;99.90;;;;;;6249590;22;20051;-88
2022/08/06 09:41:10;;;;;;;1.67;0.55;;;17.90;99.90;;;;;;6249592;22;20022;-87
2022/08/06 09:43:37;;;;;;;2.05;0.70;;;18.00;99.90;;;;;;6225485;22;20090;-94
2022/08/06 09:46:04;;;;;;;1.67;0.70;;;18.10;99.90;;;;;;6225408;22;20015;-90
2022/08/06 09:48:29;;;;;;;;;;;18.20;99.90;;;;;;6224962;22;20457;-87
2022/08/06 09:50:55;;;;;;;1.70;0.55;;;18.20;99.60;;;;;;6223779;22;19921;-88
2022/08/06 09:53:22;;;;;;;2.67;0.68;;;18.20;99.50;;;;;;6249442;22;20387;-88
2022/08/06 09:55:50;;;;;;;1.10;0.60;;;18.20;99.00;;;;;;6249240;22;20069;-86
2022/08/06 09:58:42;;;;;;;2.47;0.60;;;18.30;99.10;;;;;;6249589;22;20311;-86
2022/08/06 10:01:20;;;;;;;2.30;0.73;;;18.30;98.80;;;;;;6242319;22;20411;-84
2022/08/06 10:03:46;;;;;;;2.50;0.50;;;18.40;98.80;;;;;;6223941;22;20016;-85
2022/08/06 10:06:20;;;;;;;1.48;0.60;;;18.50;98.50;;;;;;6276487;22;20008;-85
2022/08/06 10:08:47;;;;;;;1.00;0.57;;;18.50;98.40;;;;;;6224931;22;20058;-84
2022/08/06 10:11:14;;;;;;;2.50;0.63;;;18.60;98.40;;;;;;6249773;22;20365;-88
2022/08/06 10:13:45;;;;;;;;;;;18.70;98.00;;;;;;6223731;22;20345;-88
2022/08/06 10:16:26;;;;;;;2.10;0.77;;;18.70;96.70;;;;;;6224251;22;19915;-89
2022/08/06 10:18:53;;;;;;;1.52;0.63;;;18.80;97.50;;;;;;6224603;22;20065;-88
2022/08/06 10:21:44;;;;;;;2.28;0.73;;;18.90;97.50;;;;;;6224542;22;20070;-86
2022/08/06 10:24:45;;;;;;;2.10;0.80;;;19.00;96.70;;;;;;6225127;22;20020;-88
2022/08/06 10:27:13;;;;;;;2.97;0.73;;;19.10;96.60;;;;;;6224129;22;20071;-88
2022/08/06 10:29:49;;;;;;;2.33;0.75;;;19.10;96.60;;;;;;6224508;22;20045;-88
2022/08/06 10:32:43;;;;;;;1.75;0.60;;;19.20;96.20;;;;;;6249587;22;20395;-88
2022/08/06 10:35:46;;;;;;;2.38;0.70;;;19.20;95.10;;;;;;6206749;22;20024;-89
2022/08/06 10:38:16;;;;;;;1.52;0.50;;;19.30;95.30;;;;;;6203283;22;20104;-89
2022/08/06 10:40:43;;;;;;;1.63;0.55;;;19.40;95.70;;;;;;6224342;22;20051;-89
2022/08/06 10:43:10;;;;;;;1.52;0.60;;;19.50;95.20;;;;;;6224327;22;20016;-88
2022/08/06 10:45:38;;;;;;;1.75;0.70;;;19.40;94.80;;;;;;6224472;22;20093;-86
2022/08/06 10:48:04;;;;;;;1.42;0.55;;;19.40;94.70;;;;;;6224780;22;20039;-89
2022/08/06 10:50:31;;;;;;;2.05;1.00;;;19.40;94.90;;;;;;6226094;22;20004;-88
2022/08/06 10:52:59;;;;;;;2.13;0.70;;;19.40;95.30;;;;;;6226419;22;20444;-88
2022/08/06 10:55:28;;;;;;;2.58;0.65;;;19.40;95.20;;;;;;6226135;22;20095;-88
2022/08/06 10:57:53;;;;;;;1.85;0.60;;;19.50;94.70;;;;;;6226356;22;20027;-87
2022/08/06 11:00:19;;;;;;;2.78;0.73;;;19.70;94.60;;;;;;6226097;22;20012;-88
2022/08/06 11:03:00;;;;;;;1.55;0.50;;;19.90;95.10;;;;;;6251411;22;20093;-88
2022/08/06 11:05:36;;;;;;;1.92;0.65;;;20.10;94.80;;;;;;6224931;22;20020;-88
2022/08/06 11:08:22;;;;;;;2.03;0.63;;;20.20;94.40;;;;;;6226553;22;20015;-88
2022/08/06 11:11:23;;;;;;;1.80;0.70;;;20.30;94.00;;;;;;6251466;22;20657;-88
2022/08/06 11:14:10;;;;;;;2.22;0.57;;;20.20;93.50;;;;;;6219267;22;20020;-89
2022/08/06 11:16:36;;;;;;;2.15;0.65;;;20.10;93.70;;;;;;6226020;22;20032;-88
2022/08/06 11:19:10;;;;;;;1.70;0.80;;;20.10;94.00;;;;;;6251714;22;20047;-90
2022/08/06 11:21:56;;;;;;;2.80;0.88;;;20.10;94.00;;;;;;6226597;22;20473;-90
2022/08/06 11:24:21;;;;;;;3.20;0.82;;;20.10;94.20;;;;;;6225457;22;20078;-89
2022/08/06 11:26:47;;;;;;;2.47;1.10;;;20.10;94.30;;;;;;6226217;22;20449;-91
2022/08/06 11:29:15;;;;;;;3.05;1.10;;;20.10;94.10;;;;;;6226722;22;20035;-90
2022/08/06 11:31:57;;;;;;;2.22;0.80;;;20.20;93.70;;;;;;6226479;22;20049;-90
2022/08/06 11:34:41;;;;;;;3.05;1.20;;;20.40;93.70;;;;;;6226117;22;20157;-90
2022/08/06 11:37:06;;;;;;;3.47;1.10;;;20.60;93.40;;;;;;6225963;22;20043;-90
2022/08/06 11:40:05;;;;;;;4.05;1.10;;;20.70;93.40;;;;;;6254047;22;20066;-89
2022/08/06 11:42:42;;;;;;;3.15;1.02;;;20.90;92.60;;;;;;6226301;22;20016;-89
2022/08/06 11:45:07;;;;;;;3.85;1.58;;;21.10;92.10;;;;;;6224446;22;20015;-90
2022/08/06 11:51:48;;;;;;;3.65;1.48;;;21.20;90.60;;;;;;6184752;23;20061;-88
2022/08/06 11:54:28;;;;;;;2.40;1.20;;;21.30;91.50;;;;;;6225797;22;20022;-91
2022/08/06 11:57:06;;;;;;;4.32;1.40;;;21.40;91.60;;;;;;6225679;22;20081;-88
2022/08/06 11:59:32;;;;;;;4.78;1.55;;;21.40;91.20;;;;;;6225058;22;20445;-87
2022/08/06 12:02:15;;;;;;;3.80;1.60;;;21.50;90.50;;;;;;6251352;22;20023;-89
2022/08/06 12:04:50;;;;;;;4.00;1.60;;;21.60;89.00;;;;;;6226043;22;20019;-90
2022/08/06 12:07:21;;;;;;;4.13;1.55;;;21.70;89.10;;;;;;6225950;22;20019;-88
2022/08/06 12:10:00;;;;;;;4.50;1.50;;;21.80;88.70;;;;;;6225615;22;20385;-90
2022/08/06 12:12:29;;;;;;;3.20;1.52;;;21.80;88.60;;;;;;6225329;22;20059;-89
2022/08/06 12:14:56;;;;;;;4.72;1.70;;;21.60;88.80;;;;;;6250435;22;20094;-88
2022/08/06 12:17:23;;;;;;;3.05;1.27;;;21.50;89.00;;;;;;6225772;22;20016;-89
2022/08/06 12:20:05;;;;;;;3.15;1.20;;;21.40;88.30;;;;;;6226106;22;20449;-90
2022/08/06 12:22:33;;;;;;;3.10;1.33;;;21.50;87.90;;;;;;6225188;22;20066;-89
2022/08/06 12:25:01;;;;;;;3.78;1.67;;;21.40;88.40;;;;;;6250492;22;20015;-90
2022/08/06 12:27:36;;;;;;;3.13;1.48;;;21.50;88.70;;;;;;6224705;22;20023;-90
2022/08/06 12:30:03;;;;;;;2.78;1.20;;;21.50;87.90;;;;;;6224580;22;20145;-89
2022/08/06 12:32:32;;;;;;;3.45;1.30;;;21.50;86.70;;;;;;6225898;22;20464;-90
2022/08/06 12:35:02;;;;;;;4.72;1.75;;;21.60;86.80;;;;;;6225625;22;20015;-90
2022/08/06 12:37:39;;;;;;;3.58;1.63;;;21.70;86.10;;;;;;6225980;22;20016;-89
2022/08/06 12:40:23;;;;;;;3.65;1.48;;;21.80;85.40;;;;;;6251154;22;20008;-90
2022/08/06 12:42:50;;;;;;;2.92;1.13;;;21.90;86.10;;;;;;6250930;22;20015;-90
2022/08/06 12:45:23;;;;;;;2.67;1.25;;;22.10;85.90;;;;;;6225475;22;20094;-91
2022/08/06 12:48:01;;;;;;;3.40;1.40;;;22.20;84.90;;;;;;6225331;22;20011;-89
2022/08/06 12:50:29;;;;;;;3.33;1.45;;;22.30;83.00;;;;;;6225624;22;20091;-90
2022/08/06 12:53:16;;;;;;;4.05;1.83;;;22.30;84.70;;;;;;6225641;22;20012;-91
2022/08/06 12:55:46;;;;;;;4.05;1.45;;;22.40;82.30;;;;;;6225260;22;20019;-91
2022/08/06 12:58:15;;;;;;;4.03;1.55;;;22.40;83.30;;;;;;6225538;22;20012;-91
2022/08/06 13:00:42;;;;;;;4.13;1.52;;;22.50;83.80;;;;;;6225540;22;20099;-89
2022/08/06 13:03:10;;;;;;;3.17;1.42;;;22.30;81.90;;;;;;6252830;22;20018;-89
2022/08/06 13:05:40;;;;;;;4.25;1.52;;;22.10;82.30;;;;;;6225487;22;20022;-90
2022/08/06 13:08:06;;;;;;;4.13;1.58;;;21.80;82.20;;;;;;6225606;22;20016;-92
2022/08/06 13:10:32;;;;;;;2.95;1.20;;;21.70;83.70;;;;;;6246027;22;20023;-91
2022/08/06 13:12:59;;;;;;;;;;;21.70;82.70;;;;;;6221235;23;20020;-92
2022/08/06 13:15:27;;;;;;;4.63;1.30;;;21.70;81.20;;;;;;6218168;23;19986;-92
2022/08/06 13:18:07;;;;;;;3.38;1.50;;;21.80;82.80;;;;;;6218723;23;20022;-89
2022/08/06 13:20:50;;;;;;;3.20;1.40;;;21.80;82.70;;;;;;6219791;23;20339;-89
2022/08/06 13:23:35;;;;;;;4.30;1.77;;;21.80;83.00;;;;;;6217847;23;20016;-89